sensor_id;sensor_type;location;lat;lon;timestamp;P1;durP1;ratioP1;P2;durP2;ratioP2
72939;SDS011;61094;51.154;13.570;2022-11-20T00:00:38;7.57;;;3.97;;
72939;SDS011;61094;51.154;13.570;2022-11-20T00:03:05;9.57;;;3.45;;
72939;SDS011;61094;51.154;13.570;2022-11-20T00:05:32;9.50;;;5.35;;
72939;SDS011;61094;51.154;13.570;2022-11-20T00:07:59;13.95;;;5.05;;
72939;SDS011;61094;51.154;13.570;2022-11-20T00:10:25;11.05;;;4.05;;
72939;SDS011;61094;51.154;13.570;2022-11-20T00:12:52;9.82;;;4.53;;
72939;SDS011;61094;51.154;13.570;2022-11-20T00:15:20;13.55;;;4.68;;
72939;SDS011;61094;51.154;13.570;2022-11-20T00:17:47;6.75;;;4.10;;
72939;SDS011;61094;51.154;13.570;2022-11-20T00:20:14;10.57;;;4.10;;
72939;SDS011;61094;51.154;13.570;2022-11-20T00:22:41;11.77;;;4.00;;
72939;SDS011;61094;51.154;13.570;2022-11-20T00:25:08;12.73;;;4.63;;
72939;SDS011;61094;51.154;13.570;2022-11-20T00:27:35;8.38;;;3.15;;
72939;SDS011;61094;51.154;13.570;2022-11-20T00:30:01;11.32;;;4.45;;
72939;SDS011;61094;51.154;13.570;2022-11-20T00:32:30;16.02;;;5.65;;
72939;SDS011;61094;51.154;13.570;2022-11-20T00:34:57;12.88;;;4.50;;
72939;SDS011;61094;51.154;13.570;2022-11-20T00:37:23;11.38;;;5.35;;
72939;SDS011;61094;51.154;13.570;2022-11-20T00:39:50;12.02;;;4.10;;
72939;SDS011;61094;51.154;13.570;2022-11-20T00:42:17;14.15;;;4.60;;
72939;SDS011;61094;51.154;13.570;2022-11-20T00:44:44;11.63;;;4.30;;
72939;SDS011;61094;51.154;13.570;2022-11-20T00:47:11;17.67;;;6.88;;
72939;SDS011;61094;51.154;13.570;2022-11-20T00:49:39;6.93;;;3.58;;
72939;SDS011;61094;51.154;13.570;2022-11-20T00:52:06;11.35;;;4.70;;
72939;SDS011;61094;51.154;13.570;2022-11-20T00:54:32;8.50;;;3.33;;
72939;SDS011;61094;51.154;13.570;2022-11-20T00:56:59;11.43;;;4.00;;
72939;SDS011;61094;51.154;13.570;2022-11-20T00:59:26;12.25;;;4.55;;
72939;SDS011;61094;51.154;13.570;2022-11-20T01:01:52;14.27;;;4.18;;
72939;SDS011;61094;51.154;13.570;2022-11-20T01:04:19;10.23;;;4.38;;
72939;SDS011;61094;51.154;13.570;2022-11-20T01:06:47;10.05;;;5.57;;
72939;SDS011;61094;51.154;13.570;2022-11-20T01:09:14;9.15;;;4.53;;
72939;SDS011;61094;51.154;13.570;2022-11-20T01:11:41;7.93;;;3.30;;
72939;SDS011;61094;51.154;13.570;2022-11-20T01:14:10;11.55;;;4.45;;
72939;SDS011;61094;51.154;13.570;2022-11-20T01:16:40;9.07;;;3.53;;
72939;SDS011;61094;51.154;13.570;2022-11-20T01:19:09;8.30;;;3.17;;
72939;SDS011;61094;51.154;13.570;2022-11-20T01:21:39;8.15;;;2.88;;
72939;SDS011;61094;51.154;13.570;2022-11-20T01:24:10;10.32;;;3.92;;
72939;SDS011;61094;51.154;13.570;2022-11-20T01:26:39;8.63;;;3.58;;
72939;SDS011;61094;51.154;13.570;2022-11-20T01:29:08;9.57;;;3.85;;
72939;SDS011;61094;51.154;13.570;2022-11-20T01:31:39;13.45;;;5.65;;
72939;SDS011;61094;51.154;13.570;2022-11-20T01:34:06;7.50;;;3.70;;
72939;SDS011;61094;51.154;13.570;2022-11-20T01:36:35;9.07;;;3.63;;
72939;SDS011;61094;51.154;13.570;2022-11-20T01:39:04;9.25;;;3.22;;
72939;SDS011;61094;51.154;13.570;2022-11-20T01:41:34;8.18;;;3.25;;
72939;SDS011;61094;51.154;13.570;2022-11-20T01:44:19;4.70;;;2.53;;
72939;SDS011;61094;51.154;13.570;2022-11-20T01:46:51;14.68;;;5.78;;
72939;SDS011;61094;51.154;13.570;2022-11-20T01:49:23;11.55;;;4.00;;
72939;SDS011;61094;51.154;13.570;2022-11-20T01:51:55;10.63;;;3.03;;
72939;SDS011;61094;51.154;13.570;2022-11-20T01:54:27;9.05;;;3.28;;
72939;SDS011;61094;51.154;13.570;2022-11-20T01:56:59;7.93;;;3.67;;
72939;SDS011;61094;51.154;13.570;2022-11-20T01:59:27;8.35;;;2.70;;
72939;SDS011;61094;51.154;13.570;2022-11-20T02:01:55;10.93;;;4.40;;
72939;SDS011;61094;51.154;13.570;2022-11-20T02:04:23;17.35;;;5.90;;
72939;SDS011;61094;51.154;13.570;2022-11-20T02:06:51;16.95;;;5.78;;
72939;SDS011;61094;51.154;13.570;2022-11-20T02:09:23;5.85;;;3.13;;
72939;SDS011;61094;51.154;13.570;2022-11-20T02:11:50;8.13;;;3.97;;
72939;SDS011;61094;51.154;13.570;2022-11-20T02:14:18;15.10;;;4.57;;
72939;SDS011;61094;51.154;13.570;2022-11-20T02:16:46;9.50;;;4.25;;
72939;SDS011;61094;51.154;13.570;2022-11-20T02:19:16;17.30;;;4.40;;
72939;SDS011;61094;51.154;13.570;2022-11-20T02:21:49;11.13;;;6.07;;
72939;SDS011;61094;51.154;13.570;2022-11-20T02:24:24;6.10;;;2.83;;
72939;SDS011;61094;51.154;13.570;2022-11-20T02:26:51;8.48;;;2.75;;
72939;SDS011;61094;51.154;13.570;2022-11-20T02:29:22;6.43;;;3.17;;
72939;SDS011;61094;51.154;13.570;2022-11-20T02:31:52;6.60;;;3.42;;
72939;SDS011;61094;51.154;13.570;2022-11-20T02:34:21;9.38;;;3.60;;
72939;SDS011;61094;51.154;13.570;2022-11-20T02:36:47;11.18;;;4.68;;
72939;SDS011;61094;51.154;13.570;2022-11-20T02:39:16;9.98;;;3.75;;
72939;SDS011;61094;51.154;13.570;2022-11-20T02:41:46;7.00;;;3.10;;
72939;SDS011;61094;51.154;13.570;2022-11-20T02:44:13;11.02;;;2.92;;
72939;SDS011;61094;51.154;13.570;2022-11-20T02:46:39;8.43;;;2.50;;
72939;SDS011;61094;51.154;13.570;2022-11-20T02:49:06;11.32;;;3.33;;
72939;SDS011;61094;51.154;13.570;2022-11-20T02:51:33;5.15;;;2.55;;
72939;SDS011;61094;51.154;13.570;2022-11-20T02:54:00;8.63;;;3.85;;
72939;SDS011;61094;51.154;13.570;2022-11-20T02:56:27;15.90;;;3.60;;
72939;SDS011;61094;51.154;13.570;2022-11-20T02:58:55;9.38;;;3.90;;
72939;SDS011;61094;51.154;13.570;2022-11-20T03:01:21;14.70;;;4.70;;
72939;SDS011;61094;51.154;13.570;2022-11-20T03:03:49;13.05;;;3.05;;
72939;SDS011;61094;51.154;13.570;2022-11-20T03:06:19;7.78;;;3.05;;
72939;SDS011;61094;51.154;13.570;2022-11-20T03:08:45;10.90;;;4.57;;
72939;SDS011;61094;51.154;13.570;2022-11-20T03:11:12;7.55;;;2.90;;
72939;SDS011;61094;51.154;13.570;2022-11-20T03:13:39;4.85;;;2.95;;
72939;SDS011;61094;51.154;13.570;2022-11-20T03:16:09;6.55;;;3.50;;
72939;SDS011;61094;51.154;13.570;2022-11-20T03:18:37;11.20;;;3.40;;
72939;SDS011;61094;51.154;13.570;2022-11-20T03:21:04;8.13;;;3.25;;
72939;SDS011;61094;51.154;13.570;2022-11-20T03:23:32;8.15;;;2.80;;
72939;SDS011;61094;51.154;13.570;2022-11-20T03:26:13;7.65;;;3.70;;
72939;SDS011;61094;51.154;13.570;2022-11-20T03:28:41;5.90;;;2.47;;
72939;SDS011;61094;51.154;13.570;2022-11-20T03:31:13;6.35;;;3.33;;
72939;SDS011;61094;51.154;13.570;2022-11-20T03:33:41;5.60;;;3.00;;
72939;SDS011;61094;51.154;13.570;2022-11-20T03:36:10;21.80;;;10.65;;
72939;SDS011;61094;51.154;13.570;2022-11-20T03:38:39;10.57;;;4.00;;
72939;SDS011;61094;51.154;13.570;2022-11-20T03:41:07;22.02;;;8.30;;
72939;SDS011;61094;51.154;13.570;2022-11-20T03:43:35;4.47;;;2.30;;
72939;SDS011;61094;51.154;13.570;2022-11-20T03:46:03;8.73;;;2.45;;
72939;SDS011;61094;51.154;13.570;2022-11-20T03:48:32;5.30;;;2.80;;
72939;SDS011;61094;51.154;13.570;2022-11-20T03:51:08;8.40;;;3.97;;
72939;SDS011;61094;51.154;13.570;2022-11-20T03:53:36;6.28;;;3.10;;
72939;SDS011;61094;51.154;13.570;2022-11-20T03:56:03;8.93;;;3.10;;
72939;SDS011;61094;51.154;13.570;2022-11-20T03:58:32;8.00;;;4.07;;
72939;SDS011;61094;51.154;13.570;2022-11-20T04:01:03;7.15;;;2.78;;
72939;SDS011;61094;51.154;13.570;2022-11-20T04:03:33;7.40;;;2.67;;
72939;SDS011;61094;51.154;13.570;2022-11-20T04:06:04;8.60;;;3.45;;
72939;SDS011;61094;51.154;13.570;2022-11-20T04:08:31;7.78;;;3.70;;
72939;SDS011;61094;51.154;13.570;2022-11-20T04:11:07;6.78;;;2.03;;
72939;SDS011;61094;51.154;13.570;2022-11-20T04:13:38;7.85;;;3.88;;
72939;SDS011;61094;51.154;13.570;2022-11-20T04:16:06;8.77;;;2.33;;
72939;SDS011;61094;51.154;13.570;2022-11-20T04:18:35;6.15;;;2.85;;
72939;SDS011;61094;51.154;13.570;2022-11-20T04:21:02;7.28;;;3.65;;
72939;SDS011;61094;51.154;13.570;2022-11-20T04:23:30;8.00;;;3.58;;
72939;SDS011;61094;51.154;13.570;2022-11-20T04:26:00;6.25;;;2.72;;
72939;SDS011;61094;51.154;13.570;2022-11-20T04:28:28;13.57;;;4.20;;
72939;SDS011;61094;51.154;13.570;2022-11-20T04:30:54;13.48;;;4.90;;
72939;SDS011;61094;51.154;13.570;2022-11-20T04:33:28;6.60;;;3.17;;
72939;SDS011;61094;51.154;13.570;2022-11-20T04:35:59;6.70;;;2.90;;
72939;SDS011;61094;51.154;13.570;2022-11-20T04:38:26;6.55;;;3.83;;
72939;SDS011;61094;51.154;13.570;2022-11-20T04:40:55;13.73;;;3.70;;
72939;SDS011;61094;51.154;13.570;2022-11-20T04:43:23;11.10;;;4.18;;
72939;SDS011;61094;51.154;13.570;2022-11-20T04:45:50;11.45;;;4.43;;
72939;SDS011;61094;51.154;13.570;2022-11-20T04:48:17;12.38;;;4.13;;
72939;SDS011;61094;51.154;13.570;2022-11-20T04:50:44;5.97;;;3.63;;
72939;SDS011;61094;51.154;13.570;2022-11-20T04:53:12;9.20;;;3.10;;
72939;SDS011;61094;51.154;13.570;2022-11-20T04:55:39;11.00;;;3.92;;
72939;SDS011;61094;51.154;13.570;2022-11-20T04:58:05;5.20;;;2.97;;
72939;SDS011;61094;51.154;13.570;2022-11-20T05:00:32;12.93;;;3.50;;
72939;SDS011;61094;51.154;13.570;2022-11-20T05:02:59;10.77;;;3.45;;
72939;SDS011;61094;51.154;13.570;2022-11-20T05:05:26;12.38;;;3.63;;
72939;SDS011;61094;51.154;13.570;2022-11-20T05:07:55;9.70;;;3.72;;
72939;SDS011;61094;51.154;13.570;2022-11-20T05:10:23;8.02;;;2.92;;
72939;SDS011;61094;51.154;13.570;2022-11-20T05:12:50;7.30;;;3.38;;
72939;SDS011;61094;51.154;13.570;2022-11-20T05:15:17;9.38;;;4.43;;
72939;SDS011;61094;51.154;13.570;2022-11-20T05:17:46;5.10;;;3.17;;
72939;SDS011;61094;51.154;13.570;2022-11-20T05:20:14;6.30;;;2.90;;
72939;SDS011;61094;51.154;13.570;2022-11-20T05:22:40;10.40;;;3.53;;
72939;SDS011;61094;51.154;13.570;2022-11-20T05:25:07;15.20;;;5.55;;
72939;SDS011;61094;51.154;13.570;2022-11-20T05:27:36;6.20;;;2.53;;
72939;SDS011;61094;51.154;13.570;2022-11-20T05:30:04;12.30;;;5.10;;
72939;SDS011;61094;51.154;13.570;2022-11-20T05:32:32;6.32;;;2.67;;
72939;SDS011;61094;51.154;13.570;2022-11-20T05:34:58;8.38;;;3.22;;
72939;SDS011;61094;51.154;13.570;2022-11-20T05:37:25;7.15;;;2.72;;
72939;SDS011;61094;51.154;13.570;2022-11-20T05:39:52;7.85;;;3.83;;
72939;SDS011;61094;51.154;13.570;2022-11-20T05:42:19;14.00;;;5.13;;
72939;SDS011;61094;51.154;13.570;2022-11-20T05:44:59;12.93;;;4.32;;
72939;SDS011;61094;51.154;13.570;2022-11-20T05:47:27;6.47;;;2.35;;
72939;SDS011;61094;51.154;13.570;2022-11-20T05:49:57;7.68;;;3.75;;
72939;SDS011;61094;51.154;13.570;2022-11-20T05:52:24;10.13;;;3.45;;
72939;SDS011;61094;51.154;13.570;2022-11-20T05:54:54;6.47;;;3.08;;
72939;SDS011;61094;51.154;13.570;2022-11-20T05:57:21;8.48;;;2.63;;
72939;SDS011;61094;51.154;13.570;2022-11-20T05:59:47;7.47;;;3.83;;
72939;SDS011;61094;51.154;13.570;2022-11-20T06:02:15;8.55;;;4.25;;
72939;SDS011;61094;51.154;13.570;2022-11-20T06:04:42;11.43;;;3.50;;
72939;SDS011;61094;51.154;13.570;2022-11-20T06:07:09;10.48;;;3.58;;
72939;SDS011;61094;51.154;13.570;2022-11-20T06:09:36;8.25;;;3.60;;
72939;SDS011;61094;51.154;13.570;2022-11-20T06:12:03;11.55;;;3.50;;
72939;SDS011;61094;51.154;13.570;2022-11-20T06:14:30;7.07;;;3.20;;
72939;SDS011;61094;51.154;13.570;2022-11-20T06:16:57;6.22;;;3.40;;
72939;SDS011;61094;51.154;13.570;2022-11-20T06:19:25;5.68;;;2.63;;
72939;SDS011;61094;51.154;13.570;2022-11-20T06:21:52;5.82;;;3.75;;
72939;SDS011;61094;51.154;13.570;2022-11-20T06:24:18;7.10;;;3.42;;
72939;SDS011;61094;51.154;13.570;2022-11-20T06:26:45;7.55;;;4.65;;
72939;SDS011;61094;51.154;13.570;2022-11-20T06:29:12;12.27;;;5.05;;
72939;SDS011;61094;51.154;13.570;2022-11-20T06:31:38;5.10;;;1.88;;
72939;SDS011;61094;51.154;13.570;2022-11-20T06:34:07;7.18;;;2.60;;
72939;SDS011;61094;51.154;13.570;2022-11-20T06:36:35;9.27;;;3.60;;
72939;SDS011;61094;51.154;13.570;2022-11-20T06:39:02;15.63;;;4.97;;
72939;SDS011;61094;51.154;13.570;2022-11-20T06:41:29;8.13;;;4.30;;
72939;SDS011;61094;51.154;13.570;2022-11-20T06:43:56;23.30;;;3.70;;
72939;SDS011;61094;51.154;13.570;2022-11-20T06:46:22;10.15;;;3.85;;
72939;SDS011;61094;51.154;13.570;2022-11-20T06:48:50;4.97;;;2.47;;
72939;SDS011;61094;51.154;13.570;2022-11-20T06:51:17;10.73;;;4.20;;
72939;SDS011;61094;51.154;13.570;2022-11-20T06:53:45;6.88;;;3.35;;
72939;SDS011;61094;51.154;13.570;2022-11-20T06:56:12;10.60;;;4.43;;
72939;SDS011;61094;51.154;13.570;2022-11-20T06:58:39;10.48;;;4.13;;
72939;SDS011;61094;51.154;13.570;2022-11-20T07:01:07;10.00;;;5.30;;
72939;SDS011;61094;51.154;13.570;2022-11-20T07:03:35;17.50;;;7.13;;
72939;SDS011;61094;51.154;13.570;2022-11-20T07:06:02;15.05;;;5.60;;
72939;SDS011;61094;51.154;13.570;2022-11-20T07:08:30;6.93;;;4.38;;
72939;SDS011;61094;51.154;13.570;2022-11-20T07:10:59;12.88;;;4.50;;
72939;SDS011;61094;51.154;13.570;2022-11-20T07:13:27;9.35;;;2.72;;
72939;SDS011;61094;51.154;13.570;2022-11-20T07:15:55;9.00;;;4.25;;
72939;SDS011;61094;51.154;13.570;2022-11-20T07:18:25;10.00;;;3.08;;
72939;SDS011;61094;51.154;13.570;2022-11-20T07:20:52;14.73;;;4.18;;
72939;SDS011;61094;51.154;13.570;2022-11-20T07:23:19;8.68;;;4.10;;
72939;SDS011;61094;51.154;13.570;2022-11-20T07:25:46;12.98;;;6.13;;
72939;SDS011;61094;51.154;13.570;2022-11-20T07:28:14;11.57;;;3.33;;
72939;SDS011;61094;51.154;13.570;2022-11-20T07:30:41;12.35;;;4.80;;
72939;SDS011;61094;51.154;13.570;2022-11-20T07:33:08;10.15;;;4.75;;
72939;SDS011;61094;51.154;13.570;2022-11-20T07:35:35;8.93;;;3.95;;
72939;SDS011;61094;51.154;13.570;2022-11-20T07:38:02;9.20;;;3.55;;
72939;SDS011;61094;51.154;13.570;2022-11-20T07:40:28;19.80;;;6.13;;
72939;SDS011;61094;51.154;13.570;2022-11-20T07:42:55;13.40;;;5.20;;
72939;SDS011;61094;51.154;13.570;2022-11-20T07:45:23;12.13;;;4.53;;
72939;SDS011;61094;51.154;13.570;2022-11-20T07:47:51;10.82;;;4.80;;
72939;SDS011;61094;51.154;13.570;2022-11-20T07:50:18;15.80;;;4.75;;
72939;SDS011;61094;51.154;13.570;2022-11-20T07:52:45;17.17;;;9.23;;
72939;SDS011;61094;51.154;13.570;2022-11-20T07:55:12;20.02;;;7.60;;
72939;SDS011;61094;51.154;13.570;2022-11-20T07:57:39;23.13;;;7.07;;
72939;SDS011;61094;51.154;13.570;2022-11-20T08:00:07;18.98;;;6.97;;
72939;SDS011;61094;51.154;13.570;2022-11-20T08:02:38;15.45;;;6.78;;
72939;SDS011;61094;51.154;13.570;2022-11-20T08:05:05;17.15;;;6.35;;
72939;SDS011;61094;51.154;13.570;2022-11-20T08:07:36;18.88;;;6.43;;
72939;SDS011;61094;51.154;13.570;2022-11-20T08:10:04;17.55;;;6.57;;
72939;SDS011;61094;51.154;13.570;2022-11-20T08:12:31;21.70;;;8.18;;
72939;SDS011;61094;51.154;13.570;2022-11-20T08:15:15;20.42;;;9.20;;
72939;SDS011;61094;51.154;13.570;2022-11-20T08:17:43;25.95;;;7.60;;
72939;SDS011;61094;51.154;13.570;2022-11-20T08:20:10;14.07;;;5.97;;
72939;SDS011;61094;51.154;13.570;2022-11-20T08:22:37;16.85;;;6.25;;
72939;SDS011;61094;51.154;13.570;2022-11-20T08:25:04;20.35;;;6.40;;
72939;SDS011;61094;51.154;13.570;2022-11-20T08:27:31;21.02;;;7.13;;
72939;SDS011;61094;51.154;13.570;2022-11-20T08:29:58;17.63;;;6.93;;
72939;SDS011;61094;51.154;13.570;2022-11-20T08:32:25;16.15;;;6.80;;
72939;SDS011;61094;51.154;13.570;2022-11-20T08:34:53;18.90;;;6.47;;
72939;SDS011;61094;51.154;13.570;2022-11-20T08:37:20;16.70;;;6.47;;
72939;SDS011;61094;51.154;13.570;2022-11-20T08:39:47;17.30;;;6.20;;
72939;SDS011;61094;51.154;13.570;2022-11-20T08:42:13;18.42;;;6.82;;
72939;SDS011;61094;51.154;13.570;2022-11-20T08:44:40;19.17;;;7.65;;
72939;SDS011;61094;51.154;13.570;2022-11-20T08:47:08;18.15;;;7.25;;
72939;SDS011;61094;51.154;13.570;2022-11-20T08:49:34;16.33;;;6.60;;
72939;SDS011;61094;51.154;13.570;2022-11-20T08:52:03;17.27;;;6.53;;
72939;SDS011;61094;51.154;13.570;2022-11-20T08:54:30;19.08;;;7.05;;
72939;SDS011;61094;51.154;13.570;2022-11-20T08:56:57;17.73;;;6.28;;
72939;SDS011;61094;51.154;13.570;2022-11-20T08:59:24;16.40;;;6.40;;
72939;SDS011;61094;51.154;13.570;2022-11-20T09:01:50;18.02;;;6.95;;
72939;SDS011;61094;51.154;13.570;2022-11-20T09:04:17;19.17;;;6.07;;
72939;SDS011;61094;51.154;13.570;2022-11-20T09:06:44;20.25;;;6.97;;
72939;SDS011;61094;51.154;13.570;2022-11-20T09:09:12;18.27;;;7.38;;
72939;SDS011;61094;51.154;13.570;2022-11-20T09:11:39;13.73;;;5.75;;
72939;SDS011;61094;51.154;13.570;2022-11-20T09:14:06;15.57;;;6.65;;
72939;SDS011;61094;51.154;13.570;2022-11-20T09:16:33;17.00;;;6.32;;
72939;SDS011;61094;51.154;13.570;2022-11-20T09:18:59;12.95;;;5.55;;
72939;SDS011;61094;51.154;13.570;2022-11-20T09:21:26;14.82;;;6.40;;
72939;SDS011;61094;51.154;13.570;2022-11-20T09:23:53;15.45;;;6.82;;
72939;SDS011;61094;51.154;13.570;2022-11-20T09:26:21;17.00;;;6.65;;
72939;SDS011;61094;51.154;13.570;2022-11-20T09:28:48;13.38;;;5.72;;
72939;SDS011;61094;51.154;13.570;2022-11-20T09:31:17;18.42;;;5.97;;
72939;SDS011;61094;51.154;13.570;2022-11-20T09:33:47;18.08;;;6.45;;
72939;SDS011;61094;51.154;13.570;2022-11-20T09:36:14;15.75;;;5.78;;
72939;SDS011;61094;51.154;13.570;2022-11-20T09:38:43;15.48;;;5.95;;
72939;SDS011;61094;51.154;13.570;2022-11-20T09:41:14;17.58;;;6.13;;
72939;SDS011;61094;51.154;13.570;2022-11-20T09:44:05;15.63;;;6.40;;
72939;SDS011;61094;51.154;13.570;2022-11-20T09:46:54;15.82;;;6.75;;
72939;SDS011;61094;51.154;13.570;2022-11-20T09:49:28;13.95;;;6.03;;
72939;SDS011;61094;51.154;13.570;2022-11-20T09:52:06;17.58;;;7.15;;
72939;SDS011;61094;51.154;13.570;2022-11-20T09:54:44;16.08;;;6.43;;
72939;SDS011;61094;51.154;13.570;2022-11-20T09:57:11;13.85;;;5.80;;
72939;SDS011;61094;51.154;13.570;2022-11-20T09:59:42;17.83;;;6.70;;
72939;SDS011;61094;51.154;13.570;2022-11-20T10:02:14;16.52;;;6.85;;
72939;SDS011;61094;51.154;13.570;2022-11-20T10:04:44;12.98;;;5.55;;
72939;SDS011;61094;51.154;13.570;2022-11-20T10:07:16;16.10;;;6.85;;
72939;SDS011;61094;51.154;13.570;2022-11-20T10:09:49;15.82;;;6.20;;
72939;SDS011;61094;51.154;13.570;2022-11-20T10:12:19;15.35;;;6.05;;
72939;SDS011;61094;51.154;13.570;2022-11-20T10:14:58;16.25;;;7.07;;
72939;SDS011;61094;51.154;13.570;2022-11-20T10:17:35;16.90;;;7.40;;
72939;SDS011;61094;51.154;13.570;2022-11-20T10:20:30;16.75;;;7.38;;
72939;SDS011;61094;51.154;13.570;2022-11-20T10:23:11;15.90;;;6.93;;
72939;SDS011;61094;51.154;13.570;2022-11-20T10:26:00;15.63;;;6.65;;
72939;SDS011;61094;51.154;13.570;2022-11-20T10:28:30;13.85;;;6.22;;
72939;SDS011;61094;51.154;13.570;2022-11-20T10:31:09;12.10;;;5.47;;
72939;SDS011;61094;51.154;13.570;2022-11-20T10:33:41;12.93;;;5.55;;
72939;SDS011;61094;51.154;13.570;2022-11-20T10:36:13;14.35;;;6.10;;
72939;SDS011;61094;51.154;13.570;2022-11-20T10:38:44;13.85;;;6.72;;
72939;SDS011;61094;51.154;13.570;2022-11-20T10:41:15;12.93;;;6.07;;
72939;SDS011;61094;51.154;13.570;2022-11-20T10:43:54;14.82;;;6.95;;
72939;SDS011;61094;51.154;13.570;2022-11-20T10:46:32;15.23;;;6.20;;
72939;SDS011;61094;51.154;13.570;2022-11-20T10:49:04;14.10;;;6.28;;
72939;SDS011;61094;51.154;13.570;2022-11-20T10:51:37;15.52;;;6.97;;
72939;SDS011;61094;51.154;13.570;2022-11-20T10:54:12;15.05;;;7.05;;
72939;SDS011;61094;51.154;13.570;2022-11-20T10:56:47;15.27;;;6.45;;
72939;SDS011;61094;51.154;13.570;2022-11-20T10:59:28;15.32;;;6.07;;
72939;SDS011;61094;51.154;13.570;2022-11-20T11:02:19;15.35;;;6.85;;
72939;SDS011;61094;51.154;13.570;2022-11-20T11:04:48;14.90;;;5.43;;
72939;SDS011;61094;51.154;13.570;2022-11-20T11:07:17;18.42;;;6.85;;
72939;SDS011;61094;51.154;13.570;2022-11-20T11:09:49;14.85;;;5.15;;
72939;SDS011;61094;51.154;13.570;2022-11-20T11:12:19;13.82;;;5.28;;
72939;SDS011;61094;51.154;13.570;2022-11-20T11:14:47;10.10;;;4.05;;
72939;SDS011;61094;51.154;13.570;2022-11-20T11:17:24;10.05;;;3.67;;
72939;SDS011;61094;51.154;13.570;2022-11-20T11:20:00;12.30;;;4.10;;
72939;SDS011;61094;51.154;13.570;2022-11-20T11:22:29;11.52;;;3.88;;
72939;SDS011;61094;51.154;13.570;2022-11-20T11:24:57;10.05;;;3.80;;
72939;SDS011;61094;51.154;13.570;2022-11-20T11:27:24;11.82;;;4.40;;
72939;SDS011;61094;51.154;13.570;2022-11-20T11:30:00;9.55;;;3.83;;
72939;SDS011;61094;51.154;13.570;2022-11-20T11:32:38;10.45;;;3.47;;
72939;SDS011;61094;51.154;13.570;2022-11-20T11:35:06;12.23;;;4.43;;
72939;SDS011;61094;51.154;13.570;2022-11-20T11:37:45;9.15;;;3.28;;
72939;SDS011;61094;51.154;13.570;2022-11-20T11:40:13;11.25;;;4.22;;
72939;SDS011;61094;51.154;13.570;2022-11-20T11:42:41;11.75;;;4.25;;
72939;SDS011;61094;51.154;13.570;2022-11-20T11:45:11;12.00;;;4.43;;
72939;SDS011;61094;51.154;13.570;2022-11-20T11:47:45;12.82;;;4.22;;
72939;SDS011;61094;51.154;13.570;2022-11-20T11:50:17;9.48;;;4.03;;
72939;SDS011;61094;51.154;13.570;2022-11-20T11:52:48;10.82;;;3.45;;
72939;SDS011;61094;51.154;13.570;2022-11-20T11:55:23;11.27;;;4.32;;
72939;SDS011;61094;51.154;13.570;2022-11-20T11:57:57;10.32;;;3.90;;
72939;SDS011;61094;51.154;13.570;2022-11-20T12:00:32;10.57;;;3.75;;
72939;SDS011;61094;51.154;13.570;2022-11-20T12:03:06;9.52;;;3.75;;
72939;SDS011;61094;51.154;13.570;2022-11-20T12:05:41;10.88;;;4.07;;
72939;SDS011;61094;51.154;13.570;2022-11-20T12:08:12;9.18;;;3.78;;
72939;SDS011;61094;51.154;13.570;2022-11-20T12:10:45;9.32;;;3.38;;
72939;SDS011;61094;51.154;13.570;2022-11-20T12:13:26;13.23;;;5.20;;
72939;SDS011;61094;51.154;13.570;2022-11-20T12:16:03;12.25;;;3.55;;
72939;SDS011;61094;51.154;13.570;2022-11-20T12:18:34;10.13;;;4.30;;
72939;SDS011;61094;51.154;13.570;2022-11-20T12:21:04;11.07;;;3.92;;
72939;SDS011;61094;51.154;13.570;2022-11-20T12:23:42;14.70;;;5.32;;
72939;SDS011;61094;51.154;13.570;2022-11-20T12:26:19;13.68;;;5.25;;
72939;SDS011;61094;51.154;13.570;2022-11-20T12:29:02;11.32;;;4.55;;
72939;SDS011;61094;51.154;13.570;2022-11-20T12:31:41;15.13;;;5.13;;
72939;SDS011;61094;51.154;13.570;2022-11-20T12:34:34;12.10;;;3.92;;
72939;SDS011;61094;51.154;13.570;2022-11-20T12:37:12;12.25;;;5.15;;
72939;SDS011;61094;51.154;13.570;2022-11-20T12:39:47;11.77;;;4.30;;
72939;SDS011;61094;51.154;13.570;2022-11-20T12:42:19;12.00;;;4.60;;
72939;SDS011;61094;51.154;13.570;2022-11-20T12:45:18;12.63;;;5.30;;
72939;SDS011;61094;51.154;13.570;2022-11-20T12:51:04;5.30;;;2.15;;
72939;SDS011;61094;51.154;13.570;2022-11-20T12:53:42;12.02;;;4.28;;
72939;SDS011;61094;51.154;13.570;2022-11-20T12:56:21;14.35;;;4.50;;
72939;SDS011;61094;51.154;13.570;2022-11-20T12:59:00;9.98;;;3.63;;
72939;SDS011;61094;51.154;13.570;2022-11-20T13:01:37;11.70;;;3.88;;
72939;SDS011;61094;51.154;13.570;2022-11-20T13:04:16;11.15;;;3.53;;
72939;SDS011;61094;51.154;13.570;2022-11-20T13:06:59;15.10;;;3.97;;
72939;SDS011;61094;51.154;13.570;2022-11-20T13:09:27;8.70;;;3.05;;
72939;SDS011;61094;51.154;13.570;2022-11-20T13:11:58;11.13;;;3.65;;
72939;SDS011;61094;51.154;13.570;2022-11-20T13:17:04;10.55;;;3.17;;
72939;SDS011;61094;51.154;13.570;2022-11-20T13:19:37;9.55;;;3.35;;
72939;SDS011;61094;51.154;13.570;2022-11-20T13:22:07;8.20;;;3.13;;
72939;SDS011;61094;51.154;13.570;2022-11-20T13:27:02;8.27;;;2.15;;
72939;SDS011;61094;51.154;13.570;2022-11-20T13:29:58;7.63;;;2.60;;
72939;SDS011;61094;51.154;13.570;2022-11-20T13:32:27;7.60;;;2.58;;
72939;SDS011;61094;51.154;13.570;2022-11-20T13:37:27;7.65;;;2.50;;
72939;SDS011;61094;51.154;13.570;2022-11-20T13:40:13;10.88;;;2.97;;
72939;SDS011;61094;51.154;13.570;2022-11-20T13:42:54;9.48;;;3.35;;
72939;SDS011;61094;51.154;13.570;2022-11-20T13:45:23;12.40;;;4.70;;
72939;SDS011;61094;51.154;13.570;2022-11-20T13:47:52;10.48;;;2.90;;
72939;SDS011;61094;51.154;13.570;2022-11-20T13:50:21;8.38;;;2.63;;
72939;SDS011;61094;51.154;13.570;2022-11-20T13:53:08;7.85;;;2.60;;
72939;SDS011;61094;51.154;13.570;2022-11-20T13:55:49;9.98;;;3.10;;
72939;SDS011;61094;51.154;13.570;2022-11-20T13:58:24;10.48;;;3.20;;
72939;SDS011;61094;51.154;13.570;2022-11-20T14:01:00;9.35;;;3.13;;
72939;SDS011;61094;51.154;13.570;2022-11-20T14:03:34;8.30;;;3.08;;
72939;SDS011;61094;51.154;13.570;2022-11-20T14:06:02;9.65;;;3.20;;
72939;SDS011;61094;51.154;13.570;2022-11-20T14:08:32;7.45;;;2.50;;
72939;SDS011;61094;51.154;13.570;2022-11-20T14:11:12;11.15;;;3.83;;
72939;SDS011;61094;51.154;13.570;2022-11-20T14:13:51;11.27;;;3.67;;
72939;SDS011;61094;51.154;13.570;2022-11-20T14:16:23;10.73;;;3.75;;
72939;SDS011;61094;51.154;13.570;2022-11-20T14:18:51;10.63;;;4.13;;
72939;SDS011;61094;51.154;13.570;2022-11-20T14:21:21;7.90;;;3.03;;
72939;SDS011;61094;51.154;13.570;2022-11-20T14:23:53;7.47;;;2.75;;
72939;SDS011;61094;51.154;13.570;2022-11-20T14:26:20;8.85;;;2.38;;
72939;SDS011;61094;51.154;13.570;2022-11-20T14:28:47;8.38;;;3.00;;
72939;SDS011;61094;51.154;13.570;2022-11-20T14:31:18;9.70;;;3.55;;
72939;SDS011;61094;51.154;13.570;2022-11-20T14:33:48;12.73;;;3.72;;
72939;SDS011;61094;51.154;13.570;2022-11-20T14:36:16;14.65;;;5.47;;
72939;SDS011;61094;51.154;13.570;2022-11-20T14:38:44;11.60;;;3.90;;
72939;SDS011;61094;51.154;13.570;2022-11-20T14:41:17;8.32;;;3.05;;
72939;SDS011;61094;51.154;13.570;2022-11-20T14:43:45;9.27;;;2.63;;
72939;SDS011;61094;51.154;13.570;2022-11-20T14:46:15;9.45;;;3.17;;
72939;SDS011;61094;51.154;13.570;2022-11-20T14:48:44;9.38;;;3.30;;
72939;SDS011;61094;51.154;13.570;2022-11-20T14:51:23;9.75;;;2.90;;
72939;SDS011;61094;51.154;13.570;2022-11-20T14:53:55;10.13;;;3.38;;